Time;durP1;ratioP1;P1;durP2;ratioP2;P2;SDS_P1;SDS_P2;PMS_P1;PMS_P2;Temp;Humidity;BMP_temperature;BMP_pressure;BME280_temperature;BME280_humidity;BME280_pressure;Samples;Min_cycle;Max_cycle;Signal;HPM_P1;HPM_P2
2021/08/19 00:00:49;;;;;;;2.63;1.50;;;;;;;11.84;80.67;90935.53;4978796;28;20029;-85
2021/08/19 00:03:26;;;;;;;2.38;1.40;;;;;;;11.85;80.94;90933.69;4978980;28;20060;-85
2021/08/19 00:05:54;;;;;;;2.70;1.52;;;;;;;11.83;79.63;90915.69;5012004;28;20049;-85
2021/08/19 00:08:34;;;;;;;2.67;1.50;;;;;;;11.74;81.35;90925.53;4978038;28;20021;-85
2021/08/19 00:11:04;;;;;;;3.33;1.50;;;;;;;11.90;79.96;90936.78;4985549;28;20037;-84
2021/08/19 00:13:43;;;;;;;4.15;1.70;;;;;;;11.73;79.77;90929.22;4981365;28;20025;-85
2021/08/19 00:16:19;;;;;;;3.92;1.63;;;;;;;11.76;80.60;90927.81;4999585;28;20053;-86
2021/08/19 00:18:54;;;;;;;2.63;1.30;;;;;;;11.75;81.07;90931.53;4977601;28;20042;-85
2021/08/19 00:21:31;;;;;;;4.38;1.65;;;;;;;11.69;81.25;90933.59;4995708;28;20026;-85
2021/08/19 00:24:06;;;;;;;4.82;1.33;;;;;;;11.61;81.46;90927.44;4979487;28;20033;-85
2021/08/19 00:26:41;;;;;;;3.08;1.48;;;;;;;11.65;81.26;90928.28;4963837;28;20029;-85
2021/08/19 00:29:18;;;;;;;2.92;1.42;;;;;;;11.69;80.99;90929.13;4995679;28;20036;-85
2021/08/19 00:31:53;;;;;;;2.28;1.42;;;;;;;11.68;80.74;90925.03;4996242;28;20080;-86
2021/08/19 00:34:31;;;;;;;2.20;1.35;;;;;;;11.76;80.53;90925.97;4979927;28;20041;-85
2021/08/19 00:37:07;;;;;;;2.30;1.50;;;;;;;11.71;80.22;90921.00;4980343;28;20496;-85
2021/08/19 00:39:45;;;;;;;3.28;1.40;;;;;;;11.61;81.23;90918.84;4979166;28;20018;-85
2021/08/19 00:42:22;;;;;;;2.83;1.55;;;;;;;11.55;81.22;90925.41;4979810;28;20026;-84
2021/08/19 00:44:55;;;;;;;3.47;1.40;;;;;;;11.59;80.32;90926.25;4979531;28;20490;-85
2021/08/19 00:47:27;;;;;;;2.35;1.42;;;;;;;11.51;80.63;90921.94;4979930;28;20448;-85
2021/08/19 00:50:08;;;;;;;3.47;1.60;;;;;;;11.40;80.95;90911.97;4996840;28;20421;-86
2021/08/19 00:52:42;;;;;;;3.05;1.50;;;;;;;11.27;80.96;90907.13;4980421;28;20022;-86
2021/08/19 00:55:09;;;;;;;3.25;1.33;;;;;;;11.06;81.46;90902.88;4979883;28;20080;-86
2021/08/19 00:57:46;;;;;;;2.33;1.30;;;;;;;11.30;80.58;90899.41;4995250;28;20029;-85
2021/08/19 01:00:28;;;;;;;2.58;1.40;;;;;;;11.17;81.32;90897.94;4996340;28;20046;-86
2021/08/19 01:03:08;;;;;;;2.72;1.40;;;;;;;10.97;81.65;90899.63;4980905;28;20026;-86
2021/08/19 01:05:44;;;;;;;4.63;1.65;;;;;;;10.80;82.56;90905.84;5005718;28;20083;-85
2021/08/19 01:08:19;;;;;;;4.80;1.45;;;;;;;10.79;82.42;90904.34;5037294;28;20021;-85
2021/08/19 01:10:54;;;;;;;;;;;;;;;10.80;81.97;90899.88;5004163;28;20036;-86
2021/08/19 01:13:28;;;;;;;;;;;;;;;10.85;81.38;90908.25;5033441;28;20008;-86
2021/08/19 01:16:03;;;;;;;2.30;1.08;;;;;;;10.72;82.05;90899.66;5034221;28;19909;-87
2021/08/19 01:18:51;;;;;;;3.10;1.17;;;;;;;10.57;82.82;90897.00;5000525;28;20029;-87
2021/08/19 01:21:27;;;;;;;3.22;1.40;;;;;;;10.65;82.70;90893.50;5001311;28;20026;-87
2021/08/19 01:24:06;;;;;;;2.20;1.20;;;;;;;10.62;82.85;90891.53;5001035;28;20435;-86
2021/08/19 01:26:43;;;;;;;2.30;1.27;;;;;;;10.66;82.39;90892.41;5029682;28;20024;-85
2021/08/19 01:29:24;;;;;;;2.83;1.52;;;;;;;10.57;82.61;90902.97;5001977;28;20025;-85
2021/08/19 01:32:15;;;;;;;2.28;1.30;;;;;;;10.39;83.38;90902.44;5023500;28;20029;-85
2021/08/19 01:34:58;;;;;;;3.20;1.45;;;;;;;10.34;83.49;90902.63;5041617;28;20535;-87
2021/08/19 01:37:38;;;;;;;2.75;1.30;;;;;;;10.31;83.37;90899.91;5042313;28;20033;-88
2021/08/19 01:40:15;;;;;;;3.00;1.20;;;;;;;10.50;82.89;90900.16;5026186;28;20028;-87
2021/08/19 01:42:50;;;;;;;1.70;1.10;;;;;;;10.47;82.69;90896.34;5025548;28;20028;-87
2021/08/19 01:45:30;;;;;;;2.95;1.30;;;;;;;10.32;83.24;90896.22;5026328;28;20029;-86
2021/08/19 01:48:11;;;;;;;1.73;1.15;;;;;;;10.23;83.87;90893.72;5026209;28;20123;-86
2021/08/19 01:50:39;;;;;;;2.45;1.27;;;;;;;10.15;83.97;90899.78;5027654;28;20052;-87
2021/08/19 01:53:13;;;;;;;2.97;1.25;;;;;;;10.13;84.08;90897.50;5043193;28;20024;-87
2021/08/19 01:55:48;;;;;;;2.67;1.33;;;;;;;10.31;83.28;90892.09;5043535;28;20067;-86
2021/08/19 01:58:27;;;;;;;2.28;1.10;;;;;;;10.11;84.32;90896.31;5027471;28;20021;-87
2021/08/19 02:01:07;;;;;;;2.10;1.05;;;;;;;9.96;84.96;90895.84;5026566;28;20025;-87
2021/08/19 02:03:43;;;;;;;2.00;1.20;;;;;;;9.98;84.54;90904.09;5043130;28;20033;-87
2021/08/19 02:06:21;;;;;;;2.17;1.13;;;;;;;9.96;83.91;90898.44;5028220;28;20031;-86
2021/08/19 02:08:54;;;;;;;2.08;1.10;;;;;;;9.88;83.43;90904.53;5036135;28;20021;-85
2021/08/19 02:11:38;;;;;;;4.05;1.20;;;;;;;9.66;83.88;90892.66;5037103;28;20028;-85
2021/08/19 02:14:18;;;;;;;4.38;1.58;;;;;;;9.66;84.18;90895.28;5053841;28;20035;-85
2021/08/19 02:16:52;;;;;;;2.35;1.65;;;;;;;9.67;84.47;90898.63;5020714;28;20033;-85
2021/08/19 02:19:32;;;;;;;3.55;1.38;;;;;;;9.63;84.38;90903.72;5020034;28;20029;-84
2021/08/19 02:22:07;;;;;;;3.08;1.05;;;;;;;9.67;83.91;90898.63;5016102;28;20060;-85
2021/08/19 02:24:42;;;;;;;2.78;1.20;;;;;;;9.66;84.25;90907.53;5000462;28;20021;-85
2021/08/19 02:27:15;;;;;;;1.90;1.17;;;;;;;9.61;85.00;90897.31;5011939;28;20029;-85
2021/08/19 02:29:50;;;;;;;2.00;1.05;;;;;;;9.70;84.71;90908.41;4983572;28;20056;-85
2021/08/19 02:32:23;;;;;;;1.80;1.10;;;;;;;9.67;85.33;90899.38;5003853;28;20405;-85
2021/08/19 02:34:55;;;;;;;2.30;1.10;;;;;;;9.77;85.23;90898.97;5019085;28;20024;-85
2021/08/19 02:37:34;;;;;;;1.92;1.10;;;;;;;9.70;85.01;90893.53;5017817;28;20127;-85
2021/08/19 02:40:14;;;;;;;2.95;1.25;;;;;;;9.70;84.83;90903.19;5035951;28;20071;-84
2021/08/19 02:43:04;;;;;;;2.80;1.02;;;;;;;9.63;85.01;90892.56;5035666;28;20468;-84
2021/08/19 02:45:38;;;;;;;2.25;1.20;;;;;;;9.71;85.62;90896.91;5053187;28;20057;-85
2021/08/19 02:48:17;;;;;;;1.70;1.08;;;;;;;9.76;86.35;90894.84;5035438;28;20041;-85
2021/08/19 02:50:51;;;;;;;2.38;1.20;;;;;;;9.88;86.16;90890.75;5002861;28;20061;-84
2021/08/19 02:53:28;;;;;;;1.90;1.13;;;;;;;9.90;85.92;90883.41;4995421;28;20033;-85
2021/08/19 02:56:06;;;;;;;2.40;1.05;;;;;;;9.89;86.18;90879.25;4980707;28;20045;-85
2021/08/19 02:58:43;;;;;;;2.78;1.10;;;;;;;9.94;85.87;90877.22;5001665;28;20029;-85
2021/08/19 03:01:22;;;;;;;1.65;0.90;;;;;;;9.94;86.12;90881.66;5019214;28;20033;-83
2021/08/19 03:03:58;;;;;;;2.30;1.35;;;;;;;9.93;86.25;90869.69;5019296;28;20021;-85
2021/08/19 03:06:36;;;;;;;1.50;1.00;;;;;;;9.96;86.16;90872.41;5018481;28;20615;-85
2021/08/19 03:09:11;;;;;;;5.65;1.30;;;;;;;10.01;85.96;90867.00;5034963;28;20500;-85
2021/08/19 03:11:47;;;;;;;1.77;1.20;;;;;;;10.05;86.14;90869.72;5002953;28;20500;-85
2021/08/19 03:14:29;;;;;;;1.88;1.10;;;;;;;10.12;86.00;90877.00;5018896;28;20459;-85
2021/08/19 03:17:04;;;;;;;2.08;1.15;;;;;;;10.17;85.77;90871.56;5019561;28;20029;-85
2021/08/19 03:19:43;;;;;;;3.25;1.23;;;;;;;10.13;86.10;90871.47;5017725;28;20120;-85
2021/08/19 03:22:21;;;;;;;3.55;1.25;;;;;;;10.07;86.28;90870.19;5002707;28;20393;-84
2021/08/19 03:25:00;;;;;;;2.78;1.00;;;;;;;10.13;86.40;90868.84;5001487;28;20033;-84
2021/08/19 03:27:33;;;;;;;2.85;1.13;;;;;;;10.13;86.40;90868.84;5014674;28;20477;-85
2021/08/19 03:30:02;;;;;;;2.15;1.30;;;;;;;10.15;86.17;90873.75;4996994;28;20051;-86
2021/08/19 03:32:34;;;;;;;2.20;1.20;;;;;;;10.11;86.62;90859.88;5007204;28;20181;-87
2021/08/19 03:35:11;;;;;;;2.92;1.20;;;;;;;10.16;86.54;90862.25;5002295;28;20017;-86
2021/08/19 03:37:45;;;;;;;3.88;1.20;;;;;;;10.27;86.42;90868.56;5002863;28;20025;-85
2021/08/19 03:40:26;;;;;;;1.50;0.90;;;;;;;10.27;86.43;90868.56;5018659;28;20036;-87
2021/08/19 03:43:10;;;;;;;5.35;1.20;;;;;;;10.30;86.56;90873.13;5019095;28;20025;-85
2021/08/19 03:45:41;;;;;;;2.22;1.27;;;;;;;10.32;86.52;90864.97;5018464;28;20037;-86
2021/08/19 03:50:43;;;;;;;2.33;1.10;;;;;;;10.38;86.07;90869.63;5030318;28;20041;-87
2021/08/19 03:53:17;;;;;;;2.35;1.08;;;;;;;10.31;86.42;90872.03;4998503;28;20029;-88
2021/08/19 03:55:55;;;;;;;3.40;1.10;;;;;;;10.42;86.21;90861.91;4998141;28;20108;-87
2021/08/19 03:58:31;;;;;;;4.15;1.00;;;;;;;10.40;86.34;90862.25;4999913;28;20402;-88
2021/08/19 04:01:06;;;;;;;3.17;0.90;;;;;;;10.47;86.74;90872.88;5033238;28;20029;-87
2021/08/19 04:03:50;;;;;;;3.75;1.20;;;;;;;10.43;86.40;90882.44;5017949;28;20021;-88
2021/08/19 04:06:27;;;;;;;2.15;1.20;;;;;;;10.43;86.41;90876.50;5033337;28;20481;-87
2021/08/19 04:09:02;;;;;;;2.95;1.00;;;;;;;10.45;86.68;90879.50;5051193;28;20037;-88
2021/08/19 04:11:38;;;;;;;3.30;1.30;;;;;;;10.43;86.37;90877.25;5018153;28;20025;-88
2021/08/19 04:14:13;;;;;;;3.25;1.45;;;;;;;10.42;86.54;90886.13;5033721;28;20104;-87
2021/08/19 04:16:47;;;;;;;2.38;1.13;;;;;;;10.51;86.49;90871.16;5034549;28;20392;-87
2021/08/19 04:19:29;;;;;;;1.92;1.13;;;;;;;10.51;86.62;90878.19;5017574;28;20040;-88
2021/08/19 04:22:05;;;;;;;4.43;1.38;;;;;;;10.57;86.97;90876.16;5018552;28;20488;-88
2021/08/19 04:24:45;;;;;;;2.00;0.98;;;;;;;10.69;86.21;90863.09;5017152;28;20025;-87
2021/08/19 04:27:26;;;;;;;2.55;1.10;;;;;;;10.71;86.51;90860.91;5030252;28;20056;-87
2021/08/19 04:30:01;;;;;;;3.42;1.08;;;;;;;10.69;86.28;90868.28;5031017;28;20551;-88
2021/08/19 04:32:39;;;;;;;1.95;1.05;;;;;;;10.64;86.71;90864.06;5013324;28;20025;-87
2021/08/19 04:35:14;;;;;;;3.15;1.25;;;;;;;10.61;86.03;90869.94;4997483;28;20030;-88
2021/08/19 04:37:54;;;;;;;2.15;0.95;;;;;;;10.65;85.52;90872.66;4997313;28;20033;-88
2021/08/19 04:40:32;;;;;;;3.83;1.23;;;;;;;10.57;85.53;90874.28;5013669;28;20029;-88
2021/08/19 04:43:09;;;;;;;2.83;1.33;;;;;;;10.59;85.75;90876.56;5013898;28;20029;-87
2021/08/19 04:45:42;;;;;;;1.92;1.00;;;;;;;10.53;86.02;90871.59;5013910;28;20474;-87
2021/08/19 04:48:22;;;;;;;4.18;1.30;;;;;;;10.62;85.86;90881.13;5013758;28;20021;-88
2021/08/19 04:50:54;;;;;;;1.63;1.00;;;;;;;10.64;86.19;90876.34;5017476;28;20025;-88
2021/08/19 04:53:29;;;;;;;2.28;0.90;;;;;;;10.63;86.17;90870.34;5017012;28;20021;-88
2021/08/19 04:56:07;;;;;;;1.95;1.10;;;;;;;10.78;85.57;90881.97;5017583;28;20041;-88
2021/08/19 04:58:37;;;;;;;1.77;1.05;;;;;;;10.72;85.77;90884.03;5018197;28;20021;-87
2021/08/19 05:01:22;;;;;;;2.58;1.20;;;;;;;10.71;86.23;90882.53;5002651;28;20082;-89
2021/08/19 05:03:59;;;;;;;4.32;1.13;;;;;;;10.73;86.12;90882.19;5054845;28;20025;-88
2021/08/19 05:06:35;;;;;;;1.75;0.93;;;;;;;10.78;85.83;90881.97;5037491;28;20021;-87
2021/08/19 05:09:05;;;;;;;2.05;1.35;;;;;;;10.84;86.14;90878.03;5023147;28;20032;-87
2021/08/19 05:11:47;;;;;;;3.10;1.30;;;;;;;10.83;86.60;90878.38;5004176;28;20393;-88
2021/08/19 05:14:24;;;;;;;2.75;1.38;;;;;;;10.87;86.65;90877.38;5037748;28;20500;-87
2021/08/19 05:17:06;;;;;;;3.75;1.10;;;;;;;10.91;86.97;90875.63;5020299;28;20037;-88
2021/08/19 05:19:44;;;;;;;1.92;1.02;;;;;;;10.94;86.62;90880.19;5024445;28;20025;-88
2021/08/19 05:22:20;;;;;;;7.28;1.40;;;;;;;10.94;86.88;90877.56;5003277;28;20056;-89
2021/08/19 05:24:57;;;;;;;2.95;1.45;;;;;;;10.92;86.69;90879.00;5051319;28;20024;-87
2021/08/19 05:27:30;;;;;;;4.13;1.20;;;;;;;10.95;86.77;90879.13;5031789;28;20025;-88
2021/08/19 05:30:07;;;;;;;2.17;1.20;;;;;;;10.95;86.58;90880.94;4984316;28;20021;-87
2021/08/19 05:32:44;;;;;;;1.73;1.10;;;;;;;11.09;86.06;90880.56;5000423;28;20025;-88
2021/08/19 05:35:21;;;;;;;3.22;1.05;;;;;;;11.18;85.63;90881.97;5017849;28;20029;-88
2021/08/19 05:37:58;;;;;;;3.38;1.52;;;;;;;11.25;85.47;90874.31;5001091;28;20044;-87
2021/08/19 05:40:28;;;;;;;2.85;1.10;;;;;;;11.51;84.73;90877.59;4984080;28;20542;-88
2021/08/19 05:42:55;;;;;;;2.80;1.10;;;;;;;11.68;84.40;90869.44;5015917;28;20086;-88
2021/08/19 05:45:23;;;;;;;2.55;1.33;;;;;;;11.79;83.55;90870.47;5033404;28;20025;-87
2021/08/19 05:47:49;;;;;;;1.88;1.10;;;;;;;11.85;83.91;90874.38;5015937;28;20454;-87
2021/08/19 05:50:15;;;;;;;1.70;1.00;;;;;;;11.95;82.94;90873.13;5015521;28;20486;-87
2021/08/19 05:52:43;;;;;;;1.95;1.05;;;;;;;12.06;82.43;90876.00;5015917;28;20017;-88
2021/08/19 05:55:09;;;;;;;2.95;1.20;;;;;;;12.04;81.65;90870.34;5016264;28;20040;-87
2021/08/19 05:57:35;;;;;;;2.67;1.20;;;;;;;12.17;79.00;90884.84;4999995;28;20053;-88
2021/08/19 06:00:00;;;;;;;2.22;1.23;;;;;;;12.16;78.43;90878.09;4999011;28;20028;-88
2021/08/19 06:02:28;;;;;;;2.88;1.40;;;;;;;12.16;75.89;90872.88;4999466;28;20118;-88
2021/08/19 06:04:55;;;;;;;2.38;1.27;;;;;;;12.29;74.37;90874.28;4999506;28;20104;-88
2021/08/19 06:07:21;;;;;;;2.55;1.48;;;;;;;12.42;74.37;90878.31;5015525;28;20025;-87
2021/08/19 06:09:47;;;;;;;2.63;1.33;;;;;;;12.49;74.90;90890.78;4999066;28;20049;-87
2021/08/19 06:12:16;;;;;;;3.10;1.30;;;;;;;12.61;73.12;90876.84;4999106;28;20021;-87
2021/08/19 06:14:45;;;;;;;2.13;1.30;;;;;;;12.70;73.13;90871.44;5016097;28;20056;-88
2021/08/19 06:17:16;;;;;;;2.33;1.30;;;;;;;12.77;72.52;90863.75;5032973;28;20021;-87
2021/08/19 06:19:45;;;;;;;2.50;1.20;;;;;;;12.84;71.76;90869.88;4999209;28;20053;-91
2021/08/19 06:22:20;;;;;;;7.93;1.63;;;;;;;12.87;73.29;90871.81;4999448;28;20450;-88
2021/08/19 06:24:47;;;;;;;2.50;1.10;;;;;;;12.88;72.46;90878.56;5032745;28;20548;-88
2021/08/19 06:27:17;;;;;;;2.30;1.23;;;;;;;13.11;70.60;90877.91;4999569;28;20028;-87
2021/08/19 06:29:42;;;;;;;3.97;1.20;;;;;;;13.16;70.16;90875.00;5014852;28;20028;-87
2021/08/19 06:32:08;;;;;;;2.63;1.38;;;;;;;13.13;72.12;90867.84;4982527;28;20032;-88
2021/08/19 06:34:34;;;;;;;3.03;1.08;;;;;;;13.23;71.89;90867.31;4998474;28;20025;-88
2021/08/19 06:37:00;;;;;;;2.35;1.20;;;;;;;13.26;70.36;90864.03;5015236;28;20041;-88
2021/08/19 06:39:26;;;;;;;3.53;1.30;;;;;;;13.42;69.82;90869.16;5015707;28;20043;-88
2021/08/19 06:41:51;;;;;;;3.63;1.20;;;;;;;13.38;68.77;90866.50;5006324;28;20038;-88
2021/08/19 06:44:17;;;;;;;2.15;1.02;;;;;;;13.44;70.26;90866.97;4998996;28;20033;-88
2021/08/19 06:46:42;;;;;;;2.22;1.20;;;;;;;13.54;68.30;90863.81;4987822;28;20083;-87
2021/08/19 06:49:07;;;;;;;2.22;1.17;;;;;;;13.63;70.23;90866.19;5002222;28;20022;-89
2021/08/19 06:51:33;;;;;;;2.90;1.30;;;;;;;13.77;69.57;90863.81;4998672;28;20043;-89
2021/08/19 06:53:58;;;;;;;3.00;1.20;;;;;;;13.80;71.12;90865.75;5000774;28;20026;-88
2021/08/19 06:56:24;;;;;;;2.28;1.17;;;;;;;13.95;70.31;90860.75;5002530;28;20474;-88
2021/08/19 06:58:50;;;;;;;2.13;1.20;;;;;;;13.96;69.23;90875.38;5005540;28;20143;-89
2021/08/19 07:01:15;;;;;;;2.17;1.25;;;;;;;14.04;70.33;90866.53;4984720;28;20044;-88
2021/08/19 07:03:40;;;;;;;1.90;1.02;;;;;;;14.05;69.38;90866.16;5014267;28;20505;-89
2021/08/19 07:06:10;;;;;;;2.67;1.27;;;;;;;14.01;68.30;90857.50;4982392;28;20534;-88
2021/08/19 07:08:36;;;;;;;2.20;1.05;;;;;;;14.05;67.61;90870.66;5014945;28;20068;-88
2021/08/19 07:11:05;;;;;;;1.27;0.80;;;;;;;14.01;68.06;90875.06;4998074;28;20021;-88
2021/08/19 07:13:32;;;;;;;2.25;1.27;;;;;;;14.05;66.93;90873.28;4982161;28;20026;-89
2021/08/19 07:15:58;;;;;;;1.88;0.93;;;;;;;13.81;67.23;90877.72;5005286;28;20060;-88
2021/08/19 07:18:25;;;;;;;2.50;1.00;;;;;;;13.55;68.56;90867.19;5037643;28;20040;-90
2021/08/19 07:20:51;;;;;;;1.48;0.85;;;;;;;13.54;68.86;90861.19;5045078;28;20025;-89
2021/08/19 07:23:19;;;;;;;1.73;0.90;;;;;;;13.69;68.76;90858.81;5008305;28;20032;-87
2021/08/19 07:25:46;;;;;;;1.90;1.02;;;;;;;13.66;68.38;90855.03;5034101;28;20382;-88
2021/08/19 07:28:13;;;;;;;1.73;1.15;;;;;;;13.71;69.07;90862.63;5017311;28;20071;-88
2021/08/19 07:30:39;;;;;;;2.20;1.00;;;;;;;13.82;69.67;90853.06;5017162;28;20477;-90
2021/08/19 07:33:05;;;;;;;3.05;0.90;;;;;;;13.77;68.89;90858.59;5016901;28;20025;-89
2021/08/19 07:35:32;;;;;;;2.83;1.00;;;;;;;13.90;68.97;90858.44;5017338;28;20112;-88
2021/08/19 07:38:01;;;;;;;2.45;0.93;;;;;;;13.91;67.52;90858.06;5017269;28;20056;-87
2021/08/19 07:40:30;;;;;;;1.60;1.00;;;;;;;14.07;67.91;90871.06;5000059;28;20053;-88
2021/08/19 07:42:57;;;;;;;1.75;0.80;;;;;;;14.08;67.69;90867.34;5017264;28;20043;-88
2021/08/19 07:45:24;;;;;;;2.33;0.88;;;;;;;13.98;67.09;90871.28;5033382;28;20404;-88
2021/08/19 07:47:55;;;;;;;1.63;0.75;;;;;;;14.09;68.65;90871.47;5033263;28;20029;-88
2021/08/19 07:50:24;;;;;;;1.55;0.80;;;;;;;14.28;68.95;90866.16;5016732;28;20049;-89
2021/08/19 07:52:52;;;;;;;3.00;0.90;;;;;;;14.39;68.78;90878.69;5000962;28;20474;-88
2021/08/19 07:55:20;;;;;;;1.40;0.70;;;;;;;14.49;67.24;90872.84;5017225;28;20039;-88
2021/08/19 07:57:56;;;;;;;3.22;0.98;;;;;;;14.45;65.13;90869.38;5033546;28;20556;-88
2021/08/19 08:00:33;;;;;;;1.38;0.80;;;;;;;14.45;65.78;90872.00;5017440;28;20075;-87
2021/08/19 08:02:58;;;;;;;2.13;0.85;;;;;;;14.54;63.52;90880.44;5016935;28;20071;-88
2021/08/19 08:05:26;;;;;;;1.48;0.90;;;;;;;14.35;67.12;90870.75;5021138;28;20056;-89
2021/08/19 08:07:52;;;;;;;1.92;0.90;;;;;;;14.53;65.83;90873.69;5000410;28;20025;-89
2021/08/19 08:10:17;;;;;;;1.35;0.70;;;;;;;14.57;64.87;90883.09;5032922;28;20028;-89
2021/08/19 08:12:43;;;;;;;1.40;0.68;;;;;;;14.62;64.43;90876.78;5016827;28;20024;-88
2021/08/19 08:15:09;;;;;;;2.60;0.75;;;;;;;14.83;63.56;90881.59;5000804;28;20020;-88
2021/08/19 08:17:35;;;;;;;3.30;0.90;;;;;;;14.91;64.99;90883.22;5000654;28;20111;-88
2021/08/19 08:20:01;;;;;;;5.15;1.05;;;;;;;14.95;64.76;90888.50;5016292;28;20013;-88
2021/08/19 08:22:27;;;;;;;1.30;0.65;;;;;;;14.97;63.61;90883.66;5016607;28;20036;-88
2021/08/19 08:24:55;;;;;;;1.33;0.70;;;;;;;14.98;62.92;90888.56;5033502;28;20028;-88
2021/08/19 08:27:22;;;;;;;1.00;0.60;;;;;;;15.02;63.13;90893.84;5016445;28;20032;-88
2021/08/19 08:29:49;;;;;;;3.00;0.73;;;;;;;15.19;62.53;90888.03;5016564;28;20021;-88
2021/08/19 08:32:15;;;;;;;1.27;0.70;;;;;;;15.08;63.48;90884.53;5017617;28;20071;-88
2021/08/19 08:34:43;;;;;;;1.10;0.52;;;;;;;15.39;64.73;90895.78;5001255;28;20436;-88
2021/08/19 08:37:10;;;;;;;1.90;0.68;;;;;;;15.57;62.44;90894.13;5055266;28;20028;-88
2021/08/19 08:39:40;;;;;;;1.95;0.68;;;;;;;15.46;62.39;90890.63;5003657;28;20028;-89
2021/08/19 08:42:07;;;;;;;1.38;0.70;;;;;;;15.60;61.18;90900.53;5036922;28;20035;-89
2021/08/19 08:44:37;;;;;;;1.63;0.70;;;;;;;15.59;60.26;90899.78;5036719;28;20408;-88
2021/08/19 08:47:08;;;;;;;2.72;0.80;;;;;;;15.39;60.42;90886.03;5020287;28;20527;-88
2021/08/19 08:49:38;;;;;;;1.60;0.90;;;;;;;15.34;59.27;90904.75;5019981;28;20073;-88
2021/08/19 08:52:07;;;;;;;1.60;0.82;;;;;;;15.37;60.22;90900.63;5004667;28;20028;-88
2021/08/19 08:54:36;;;;;;;1.55;0.70;;;;;;;15.23;59.92;90899.38;5003897;28;20032;-89
2021/08/19 08:57:02;;;;;;;1.52;0.93;;;;;;;15.30;58.97;90899.47;5037109;28;20036;-89
2021/08/19 08:59:29;;;;;;;1.63;0.70;;;;;;;15.51;60.34;90904.22;5019713;28;20020;-89
2021/08/19 09:01:58;;;;;;;1.50;0.80;;;;;;;15.42;60.79;90902.97;5002985;28;20493;-88
2021/08/19 09:04:25;;;;;;;1.55;0.70;;;;;;;15.50;58.21;90902.69;4998965;28;20064;-88
2021/08/19 09:06:52;;;;;;;3.17;0.88;;;;;;;15.34;59.13;90902.13;5000280;28;20066;-89
2021/08/19 09:09:19;;;;;;;3.03;1.00;;;;;;;15.58;58.91;90898.25;5007300;28;20018;-89
2021/08/19 09:11:55;;;;;;;2.13;0.90;;;;;;;15.65;58.35;90898.34;5035912;28;20032;-88
2021/08/19 09:14:25;;;;;;;1.83;0.75;;;;;;;15.40;59.26;90897.31;5019476;28;20029;-88
2021/08/19 09:16:51;;;;;;;1.38;0.70;;;;;;;15.57;59.88;90890.75;5019433;28;20113;-88
2021/08/19 09:19:17;;;;;;;2.53;1.00;;;;;;;15.86;59.94;90883.94;5018870;28;20033;-89
2021/08/19 09:21:54;;;;;;;3.42;1.00;;;;;;;16.12;58.79;90899.59;5019731;28;20025;-89
2021/08/19 09:24:24;;;;;;;3.03;0.90;;;;;;;16.21;58.59;90892.16;5019670;28;20124;-89
2021/08/19 09:26:50;;;;;;;1.77;0.85;;;;;;;16.41;56.67;90892.72;5016893;28;20035;-88
2021/08/19 09:29:29;;;;;;;1.58;1.00;;;;;;;16.38;58.30;90890.06;5003411;28;20021;-88
2021/08/19 09:32:27;;;;;;;1.80;1.00;;;;;;;16.24;57.46;90896.69;5016022;28;20083;-88
2021/08/19 09:34:53;;;;;;;1.70;0.98;;;;;;;16.28;56.60;90895.97;4992424;28;20102;-89
2021/08/19 09:37:20;;;;;;;2.28;1.00;;;;;;;16.43;57.95;90897.59;5035945;28;20476;-88
2021/08/19 09:39:56;;;;;;;1.50;0.88;;;;;;;16.52;57.24;90895.44;5019051;28;20515;-88
2021/08/19 09:42:34;;;;;;;2.58;1.10;;;;;;;16.60;57.29;90899.63;5020352;28;20029;-88
2021/08/19 09:44:59;;;;;;;1.55;0.90;;;;;;;16.34;56.49;90886.66;5019394;28;20029;-88
2021/08/19 09:47:32;;;;;;;2.13;0.95;;;;;;;16.18;56.74;90892.13;5035017;28;20039;-88
2021/08/19 09:50:11;;;;;;;2.17;1.00;;;;;;;16.22;57.03;90904.22;5058786;23;20494;-86
2021/08/19 09:52:37;;;;;;;2.85;0.90;;;;;;;16.37;57.65;90896.44;5054986;28;20126;-86
2021/08/19 09:55:25;;;;;;;3.65;1.10;;;;;;;16.51;57.98;90891.28;5063231;28;20041;-88
2021/08/19 09:57:55;;;;;;;3.90;1.13;;;;;;;16.62;58.62;90900.00;5048368;28;20032;-86
2021/08/19 10:00:32;;;;;;;1.90;0.90;;;;;;;16.64;57.47;90892.53;5040251;28;20017;-86
2021/08/19 10:02:59;;;;;;;1.83;1.00;;;;;;;16.53;57.78;90886.41;5040728;28;20032;-86
2021/08/19 10:05:27;;;;;;;2.45;0.90;;;;;;;16.64;59.65;90881.22;5041408;28;20032;-86
2021/08/19 10:07:54;;;;;;;1.55;0.80;;;;;;;17.06;57.66;90887.91;5040544;28;20032;-86
2021/08/19 10:10:24;;;;;;;2.38;0.73;;;;;;;16.83;56.30;90888.16;5040671;28;20028;-86
2021/08/19 10:12:50;;;;;;;1.48;0.93;;;;;;;16.83;59.51;90894.19;5041543;28;20630;-87
2021/08/19 10:15:18;;;;;;;1.40;0.75;;;;;;;16.64;58.60;90882.00;5039710;28;20433;-87
2021/08/19 10:17:48;;;;;;;2.72;1.00;;;;;;;16.88;58.39;90879.91;5074704;28;20044;-86
2021/08/19 10:20:17;;;;;;;1.55;0.93;;;;;;;17.03;57.88;90888.66;5023203;28;20107;-86
2021/08/19 10:22:44;;;;;;;2.08;1.20;;;;;;;16.98;57.62;90889.75;5037516;28;20029;-86
2021/08/19 10:25:10;;;;;;;2.95;1.10;;;;;;;16.52;57.59;90889.41;5004003;28;20024;-87
2021/08/19 10:27:37;;;;;;;1.23;0.80;;;;;;;16.46;58.57;90887.09;5023740;28;20503;-86
2021/08/19 10:30:04;;;;;;;1.67;0.98;;;;;;;16.42;59.27;90880.31;5039803;28;20039;-87
2021/08/19 10:32:37;;;;;;;1.60;0.70;;;;;;;16.70;58.36;90883.16;5039757;28;20039;-87
2021/08/19 10:35:07;;;;;;;2.17;1.20;;;;;;;16.61;58.07;90880.09;5023145;28;20114;-86
2021/08/19 10:37:50;;;;;;;1.77;1.10;;;;;;;16.79;60.02;90879.50;5056596;28;20370;-87
2021/08/19 10:40:23;;;;;;;3.35;1.10;;;;;;;16.85;59.02;90885.91;5073570;28;20104;-86
2021/08/19 10:43:00;;;;;;;1.70;0.85;;;;;;;17.00;58.30;90887.53;5073732;28;20028;-87
2021/08/19 10:45:31;;;;;;;1.55;0.80;;;;;;;16.99;58.62;90880.72;5024074;28;20115;-86
2021/08/19 10:48:01;;;;;;;1.30;0.80;;;;;;;16.49;58.20;90883.00;5074145;28;20074;-86
2021/08/19 10:50:35;;;;;;;1.77;0.82;;;;;;;16.45;59.37;90880.34;5056972;28;20028;-86
2021/08/19 10:53:28;;;;;;;1.90;1.00;;;;;;;16.21;59.28;90875.63;5057430;28;20079;-86
2021/08/19 10:55:55;;;;;;;2.60;1.15;;;;;;;16.53;58.43;90881.16;5043967;28;20016;-88
2021/08/19 10:58:32;;;;;;;1.88;1.00;;;;;;;16.43;59.17;90881.81;5039811;28;20085;-87
2021/08/19 11:01:17;;;;;;;2.00;1.05;;;;;;;16.62;59.09;90883.47;5022791;28;20131;-87
2021/08/19 11:03:48;;;;;;;3.40;1.05;;;;;;;16.79;59.75;90882.13;5095879;28;20012;-87
2021/08/19 11:06:17;;;;;;;1.60;1.02;;;;;;;17.05;59.14;90883.78;5063636;28;20021;-86
2021/08/19 11:09:00;;;;;;;1.42;0.98;;;;;;;17.08;57.87;90875.91;5054349;28;20078;-85
2021/08/19 11:11:40;;;;;;;2.10;1.08;;;;;;;17.20;58.87;90874.81;5054579;28;20024;-86
2021/08/19 11:14:19;;;;;;;2.45;1.20;;;;;;;17.14;58.78;90874.44;5021779;28;20048;-86
2021/08/19 11:16:55;;;;;;;2.50;1.05;;;;;;;17.02;57.52;90877.38;5038905;28;20028;-86
2021/08/19 11:19:25;;;;;;;1.92;1.05;;;;;;;16.95;58.08;90874.69;5037209;28;20020;-86
2021/08/19 11:21:54;;;;;;;1.58;0.85;;;;;;;17.02;59.21;90874.72;5020621;28;20029;-86
2021/08/19 11:24:27;;;;;;;1.92;1.15;;;;;;;17.14;58.57;90871.81;5054004;28;20027;-87
2021/08/19 11:26:59;;;;;;;2.10;1.05;;;;;;;17.09;57.84;90874.75;5021986;28;20111;-86
2021/08/19 11:29:36;;;;;;;2.45;1.00;;;;;;;17.00;58.53;90882.25;5036878;28;20074;-86
2021/08/19 11:32:14;;;;;;;2.25;1.10;;;;;;;16.98;57.25;90876.59;5053760;28;20051;-87
2021/08/19 11:34:47;;;;;;;1.73;1.05;;;;;;;16.97;58.28;90880.34;5038701;28;20028;-86
2021/08/19 11:37:30;;;;;;;2.00;1.08;;;;;;;16.89;58.43;90871.66;5037443;28;20021;-87
2021/08/19 11:39:59;;;;;;;2.50;1.17;;;;;;;17.03;58.06;90872.84;5054803;28;20382;-87
2021/08/19 11:42:38;;;;;;;1.95;1.10;;;;;;;17.09;59.04;90880.03;5037596;28;20031;-86
2021/08/19 11:45:21;;;;;;;3.45;1.20;;;;;;;17.25;59.56;90881.63;5037520;28;20046;-85
2021/08/19 11:47:50;;;;;;;1.90;1.10;;;;;;;16.96;58.36;90876.19;5054313;28;20119;-86
2021/08/19 11:50:21;;;;;;;2.30;1.35;;;;;;;17.16;57.21;90874.81;5036247;28;20384;-86
2021/08/19 11:52:49;;;;;;;2.28;1.10;;;;;;;17.42;56.84;90878.28;5037899;28;20032;-86
2021/08/19 11:55:28;;;;;;;1.92;1.17;;;;;;;17.55;56.42;90876.84;5053715;28;20032;-86
2021/08/19 11:58:21;;;;;;;1.90;1.17;;;;;;;17.52;56.35;90880.22;5021104;28;20035;-86
2021/08/19 12:01:07;;;;;;;2.35;1.13;;;;;;;17.69;56.42;90870.88;5013251;28;20461;-86
2021/08/19 12:03:44;;;;;;;2.55;1.35;;;;;;;18.04;58.81;90883.41;5037312;28;20055;-86